Time;durP1;ratioP1;P1;durP2;ratioP2;P2;SDS_P1;SDS_P2;PMS_P1;PMS_P2;Temp;Humidity;BMP_temperature;BMP_pressure;BME280_temperature;BME280_humidity;BME280_pressure;Samples;Min_cycle;Max_cycle;Signal;HPM_P1;HPM_P2
2022/06/23 00:01:06;;;;;;;5.95;2.25;;;;;;;;;;5027413;28;20797;-61
2022/06/23 00:03:34;;;;;;;5.55;3.10;;;;;;;;;;5028177;28;20049;-63
2022/06/23 00:06:03;;;;;;;6.57;3.28;;;;;;;;;;5029230;28;20029;-64
2022/06/23 00:08:29;;;;;;;6.95;2.40;;;;;;;;;;5028979;28;20041;-64
2022/06/23 00:10:57;;;;;;;9.48;3.50;;;;;;;;;;5024400;28;20026;-64
2022/06/23 00:13:26;;;;;;;7.43;3.30;;;;;;;;;;5029362;28;20037;-62
2022/06/23 00:15:53;;;;;;;6.05;2.60;;;;;;;;;;5029814;28;20045;-62
2022/06/23 00:18:21;;;;;;;6.88;2.88;;;;;;;;;;5029784;28;20096;-60
2022/06/23 00:20:53;;;;;;;5.88;2.80;;;;;;;;;;5027925;28;20021;-60
2022/06/23 00:23:21;;;;;;;5.28;2.70;;;;;;;;;;5027288;28;20083;-58
2022/06/23 00:25:47;;;;;;;6.63;2.45;;;;;;;;;;5028860;28;20030;-65
2022/06/23 00:28:24;;;;;;;12.75;3.67;;;;;;;;;;5029838;28;20032;-65
2022/06/23 00:30:52;;;;;;;10.18;2.38;;;;;;;;;;5027300;28;20478;-63
2022/06/23 00:33:20;;;;;;;9.10;2.47;;;;;;;;;;5028862;28;20025;-63
2022/06/23 00:35:47;;;;;;;5.97;2.38;;;;;;;;;;5030005;28;20026;-63
2022/06/23 00:38:29;;;;;;;7.13;2.70;;;;;;;;;;5028111;28;20045;-63
2022/06/23 00:40:56;;;;;;;11.23;2.83;;;;;;;;;;5027945;28;20084;-63
2022/06/23 00:43:22;;;;;;;9.13;2.80;;;;;;;;;;5027602;28;20029;-59
2022/06/23 00:45:51;;;;;;;20.52;3.05;;;;;;;;;;5028940;28;20025;-64
2022/06/23 00:48:17;;;;;;;7.78;3.75;;;;;;;;;;5026112;28;20120;-64
2022/06/23 00:51:02;;;;;;;9.85;2.72;;;;;;;;;;5027670;28;20503;-60
2022/06/23 00:53:33;;;;;;;10.60;2.80;;;;;;;;;;5027213;28;20028;-64
2022/06/23 00:56:02;;;;;;;9.88;2.70;;;;;;;;;;5029859;28;20029;-64
2022/06/23 00:58:31;;;;;;;8.98;2.58;;;;;;;;;;5028162;28;20029;-64
2022/06/23 01:01:14;;;;;;;7.97;2.70;;;;;;;;;;5027532;28;20046;-63
2022/06/23 01:03:55;;;;;;;7.32;2.65;;;;;;;;;;5026725;28;20033;-64
2022/06/23 01:06:28;;;;;;;4.78;2.55;;;;;;;;;;5028691;28;20037;-59
2022/06/23 01:09:00;;;;;;;6.65;2.88;;;;;;;;;;5027527;28;20120;-64
2022/06/23 01:11:33;;;;;;;7.20;3.75;;;;;;;;;;5026844;28;20018;-64
2022/06/23 01:14:18;;;;;;;6.18;2.65;;;;;;;;;;5027960;28;20147;-64
2022/06/23 01:16:53;;;;;;;6.65;2.70;;;;;;;;;;5030530;28;20026;-64
2022/06/23 01:19:38;;;;;;;5.70;2.55;;;;;;;;;;5031176;28;20025;-63
2022/06/23 01:22:07;;;;;;;8.27;2.83;;;;;;;;;;5031335;28;20108;-63
2022/06/23 01:24:43;;;;;;;9.00;2.88;;;;;;;;;;5022361;28;20040;-63
2022/06/23 01:27:38;;;;;;;8.57;2.97;;;;;;;;;;5031192;28;20021;-63
2022/06/23 01:30:05;;;;;;;13.75;4.35;;;;;;;;;;5019793;28;20538;-63
2022/06/23 01:32:35;;;;;;;11.68;2.97;;;;;;;;;;5030030;28;20100;-63
2022/06/23 01:35:04;;;;;;;10.25;3.13;;;;;;;;;;5031404;28;20109;-63
2022/06/23 01:37:38;;;;;;;9.82;2.25;;;;;;;;;;5030175;28;20025;-64
2022/06/23 01:40:23;;;;;;;6.22;2.58;;;;;;;;;;5031291;28;20033;-65
2022/06/23 01:42:56;;;;;;;9.18;3.05;;;;;;;;;;5030800;28;20034;-65
2022/06/23 01:45:33;;;;;;;10.90;2.92;;;;;;;;;;5029294;28;20138;-64
2022/06/23 01:48:12;;;;;;;7.38;2.00;;;;;;;;;;5023014;28;20386;-65
2022/06/23 01:50:51;;;;;;;5.82;2.53;;;;;;;;;;5033169;28;20033;-65
2022/06/23 01:53:17;;;;;;;7.28;2.83;;;;;;;;;;5034868;28;20117;-64
2022/06/23 01:55:54;;;;;;;6.38;2.42;;;;;;;;;;5033578;28;20494;-64
2022/06/23 01:58:21;;;;;;;9.43;2.28;;;;;;;;;;5034633;28;20108;-64
2022/06/23 02:00:48;;;;;;;10.10;3.45;;;;;;;;;;5029857;28;20880;-64
2022/06/23 02:03:18;;;;;;;6.15;2.65;;;;;;;;;;5031570;28;20118;-65
2022/06/23 02:05:53;;;;;;;6.88;2.85;;;;;;;;;;5033586;28;20115;-65
2022/06/23 02:08:19;;;;;;;6.88;2.90;;;;;;;;;;5034192;28;20030;-65
2022/06/23 02:10:59;;;;;;;6.55;2.65;;;;;;;;;;5033888;28;20386;-65
2022/06/23 02:13:52;;;;;;;5.18;2.15;;;;;;;;;;5033505;28;20032;-60
2022/06/23 02:16:23;;;;;;;8.77;3.05;;;;;;;;;;5018410;28;20120;-65
2022/06/23 02:18:58;;;;;;;7.00;3.05;;;;;;;;;;5032465;28;20029;-64
2022/06/23 02:21:35;;;;;;;10.52;2.75;;;;;;;;;;5033205;28;20378;-65
2022/06/23 02:24:04;;;;;;;5.63;2.03;;;;;;;;;;5034077;28;20018;-65
2022/06/23 02:26:33;;;;;;;6.60;3.10;;;;;;;;;;5032869;28;20100;-64
2022/06/23 02:29:18;;;;;;;7.03;2.13;;;;;;;;;;5033744;28;20144;-60
2022/06/23 02:31:52;;;;;;;6.80;2.58;;;;;;;;;;5032861;28;20167;-65
2022/06/23 02:34:21;;;;;;;9.65;3.35;;;;;;;;;;5033937;28;20037;-64
2022/06/23 02:36:59;;;;;;;11.57;3.10;;;;;;;;;;5030122;28;20644;-64
2022/06/23 02:39:45;;;;;;;7.53;2.58;;;;;;;;;;5027499;28;20068;-64
2022/06/23 02:42:32;;;;;;;6.75;2.88;;;;;;;;;;5033620;28;20434;-64
2022/06/23 02:45:16;;;;;;;9.07;2.67;;;;;;;;;;5033307;28;20036;-64
2022/06/23 02:47:55;;;;;;;5.22;2.28;;;;;;;;;;5030935;28;20044;-64
2022/06/23 02:50:21;;;;;;;7.68;2.67;;;;;;;;;;5027560;28;20540;-64
2022/06/23 02:53:12;;;;;;;7.68;2.47;;;;;;;;;;5032506;28;20029;-62
2022/06/23 02:55:57;;;;;;;10.97;2.93;;;;;;;;;;5030445;28;20436;-64
2022/06/23 02:58:26;;;;;;;6.65;2.85;;;;;;;;;;5033223;28;20125;-63
2022/06/23 03:01:00;;;;;;;6.85;2.10;;;;;;;;;;5031902;28;20021;-63
2022/06/23 03:03:41;;;;;;;7.18;2.92;;;;;;;;;;5033278;28;20017;-61
2022/06/23 03:06:20;;;;;;;9.20;2.33;;;;;;;;;;5032965;28;20025;-65
2022/06/23 03:08:55;;;;;;;6.65;2.58;;;;;;;;;;5032503;28;20034;-63
2022/06/23 03:11:51;;;;;;;8.55;2.72;;;;;;;;;;5033179;28;20497;-65
2022/06/23 03:14:19;;;;;;;4.30;2.88;;;;;;;;;;5031151;28;20032;-64
2022/06/23 03:16:48;;;;;;;8.10;3.08;;;;;;;;;;5047920;28;20383;-64
2022/06/23 03:19:19;;;;;;;8.40;3.17;;;;;;;;;;5033933;28;20025;-63
2022/06/23 03:21:53;;;;;;;11.65;3.15;;;;;;;;;;5032097;28;20029;-67
2022/06/23 03:24:30;;;;;;;7.75;3.13;;;;;;;;;;5033034;28;20037;-66
2022/06/23 03:26:58;;;;;;;5.70;2.67;;;;;;;;;;5032716;28;20036;-66
2022/06/23 03:29:24;;;;;;;9.35;2.42;;;;;;;;;;5032225;28;20557;-66
2022/06/23 03:32:01;;;;;;;13.45;3.72;;;;;;;;;;5029204;28;20036;-63
2022/06/23 03:34:48;;;;;;;10.05;2.60;;;;;;;;;;5032891;28;20049;-63
2022/06/23 03:37:18;;;;;;;11.02;3.45;;;;;;;;;;5033217;28;20520;-63
2022/06/23 03:42:46;;;;;;;7.80;2.78;;;;;;;;;;5032988;28;20083;-65
2022/06/23 03:45:28;;;;;;;7.47;2.83;;;;;;;;;;5033128;28;20040;-64
2022/06/23 03:47:57;;;;;;;6.65;2.35;;;;;;;;;;5029013;28;20021;-64
2022/06/23 03:50:25;;;;;;;5.07;2.50;;;;;;;;;;5031967;28;20104;-63
2022/06/23 03:52:55;;;;;;;9.05;2.67;;;;;;;;;;5031812;28;20097;-64
2022/06/23 03:55:24;;;;;;;7.03;3.05;;;;;;;;;;5032438;28;20486;-64
2022/06/23 03:57:53;;;;;;;8.27;3.08;;;;;;;;;;5032268;28;20022;-65
2022/06/23 04:00:19;;;;;;;7.30;3.05;;;;;;;;;;5032671;28;20045;-63
2022/06/23 04:02:47;;;;;;;6.82;2.97;;;;;;;;;;5030636;28;20064;-63
2022/06/23 04:05:13;;;;;;;5.70;2.83;;;;;;;;;;5032216;28;20029;-60
2022/06/23 04:08:05;;;;;;;12.48;3.05;;;;;;;;;;5031156;28;20026;-63
2022/06/23 04:10:31;;;;;;;7.68;2.28;;;;;;;;;;5028242;28;20386;-59
2022/06/23 04:13:12;;;;;;;9.50;3.25;;;;;;;;;;5032110;28;20136;-64
2022/06/23 04:15:40;;;;;;;4.18;2.60;;;;;;;;;;5031105;28;20038;-65
2022/06/23 04:18:12;;;;;;;9.35;3.50;;;;;;;;;;5031810;28;20079;-65
2022/06/23 04:20:39;;;;;;;7.30;2.88;;;;;;;;;;5027977;28;20075;-65
2022/06/23 04:23:08;;;;;;;7.85;2.83;;;;;;;;;;5031964;28;20375;-64
2022/06/23 04:25:45;;;;;;;8.80;3.90;;;;;;;;;;5030688;28;20474;-59
2022/06/23 04:28:18;;;;;;;5.68;2.83;;;;;;;;;;5031854;28;20095;-64
2022/06/23 04:30:46;;;;;;;6.43;2.97;;;;;;;;;;5030348;28;20049;-63
2022/06/23 04:33:18;;;;;;;9.25;3.75;;;;;;;;;;5031731;28;20036;-64
2022/06/23 04:35:47;;;;;;;6.45;3.92;;;;;;;;;;5031279;28;20084;-61
2022/06/23 04:38:16;;;;;;;8.43;3.25;;;;;;;;;;5029306;28;20382;-59
2022/06/23 04:40:42;;;;;;;8.43;2.80;;;;;;;;;;5030880;28;20025;-61
2022/06/23 04:43:17;;;;;;;9.27;3.85;;;;;;;;;;5031724;28;20029;-63
2022/06/23 04:45:53;;;;;;;8.85;3.00;;;;;;;;;;5029695;28;20100;-60
2022/06/23 04:48:31;;;;;;;5.43;2.72;;;;;;;;;;5028026;28;20041;-61
2022/06/23 04:50:57;;;;;;;9.80;3.03;;;;;;;;;;5030816;28;20022;-62
2022/06/23 04:53:44;;;;;;;5.40;2.97;;;;;;;;;;5030883;28;20037;-61
2022/06/23 04:56:30;;;;;;;6.60;3.20;;;;;;;;;;5029473;28;20034;-62
2022/06/23 04:59:14;;;;;;;8.85;3.45;;;;;;;;;;5031033;28;20091;-61
2022/06/23 05:01:42;;;;;;;9.27;4.18;;;;;;;;;;5030614;28;20072;-61
2022/06/23 05:04:15;;;;;;;8.65;3.28;;;;;;;;;;5031235;28;20398;-63
2022/06/23 05:06:43;;;;;;;11.27;3.65;;;;;;;;;;5022346;28;20034;-61
2022/06/23 05:09:26;;;;;;;10.55;4.28;;;;;;;;;;5031356;28;20038;-62
2022/06/23 05:11:53;;;;;;;7.85;2.88;;;;;;;;;;5030420;28;20390;-62
2022/06/23 05:14:26;;;;;;;8.70;3.22;;;;;;;;;;5028320;28;20034;-61
2022/06/23 05:16:55;;;;;;;9.10;4.18;;;;;;;;;;5030100;28;20079;-61
2022/06/23 05:19:34;;;;;;;10.68;3.30;;;;;;;;;;5030508;28;20040;-61
2022/06/23 05:22:01;;;;;;;6.88;2.75;;;;;;;;;;5030688;28;20040;-61
2022/06/23 05:24:29;;;;;;;6.57;2.80;;;;;;;;;;5028787;28;20022;-61
2022/06/23 05:27:00;;;;;;;9.73;3.67;;;;;;;;;;5033397;28;20025;-61
2022/06/23 05:29:33;;;;;;;10.07;3.67;;;;;;;;;;5021448;28;20128;-61
2022/06/23 05:32:01;;;;;;;10.10;4.47;;;;;;;;;;5034176;28;20108;-60
2022/06/23 05:34:29;;;;;;;7.63;3.78;;;;;;;;;;5026776;28;20116;-61
2022/06/23 05:36:58;;;;;;;6.88;4.25;;;;;;;;;;5034047;28;20675;-63
2022/06/23 05:39:42;;;;;;;11.15;4.75;;;;;;;;;;5033880;28;20025;-65
2022/06/23 05:42:12;;;;;;;7.95;3.55;;;;;;;;;;5034778;28;20044;-69
2022/06/23 05:44:58;;;;;;;12.85;3.95;;;;;;;;;;5036447;28;20036;-59
2022/06/23 05:47:27;;;;;;;12.57;4.18;;;;;;;;;;5032540;28;20052;-67
2022/06/23 05:49:56;;;;;;;11.93;4.10;;;;;;;;;;5033562;28;20168;-68
2022/06/23 05:52:29;;;;;;;10.48;3.97;;;;;;;;;;5034619;28;20140;-63
2022/06/23 05:55:07;;;;;;;9.15;3.78;;;;;;;;;;5033808;28;20064;-67
2022/06/23 05:57:42;;;;;;;7.10;3.95;;;;;;;;;;5034511;28;20108;-58
2022/06/23 06:00:11;;;;;;;12.40;4.50;;;;;;;;;;5034569;28;20037;-67
2022/06/23 06:02:37;;;;;;;10.73;3.65;;;;;;;;;;5028065;28;20085;-60
2022/06/23 06:05:03;;;;;;;11.00;4.15;;;;;;;;;;5032578;28;20479;-67
2022/06/23 06:07:37;;;;;;;8.55;3.90;;;;;;;;;;5028956;28;20359;-66
2022/06/23 06:10:12;;;;;;;13.52;4.65;;;;;;;;;;5024798;28;20482;-67
2022/06/23 06:12:40;;;;;;;10.07;4.15;;;;;;;;;;5024928;28;20065;-64
2022/06/23 06:15:26;;;;;;;11.43;3.90;;;;;;;;;;5028057;28;20453;-65
2022/06/23 06:17:56;;;;;;;10.82;3.15;;;;;;;;;;5026809;28;20482;-63
2022/06/23 06:20:25;;;;;;;7.60;3.65;;;;;;;;;;5024434;28;20029;-65
2022/06/23 06:22:54;;;;;;;7.10;3.40;;;;;;;;;;5021777;28;20033;-65
2022/06/23 06:25:25;;;;;;;8.95;3.15;;;;;;;;;;5029920;28;20025;-66
2022/06/23 06:27:51;;;;;;;12.43;3.47;;;;;;;;;;5024663;28;20149;-65
2022/06/23 06:30:19;;;;;;;9.00;4.25;;;;;;;;;;5037309;28;20057;-65
2022/06/23 06:32:46;;;;;;;10.35;4.25;;;;;;;;;;5036336;28;20020;-65
2022/06/23 06:35:15;;;;;;;9.27;3.25;;;;;;;;;;5035372;28;20542;-67
2022/06/23 06:37:44;;;;;;;12.25;3.83;;;;;;;;;;5030324;28;20044;-65
2022/06/23 06:40:10;;;;;;;10.35;3.13;;;;;;;;;;5027873;28;20076;-63
2022/06/23 06:42:57;;;;;;;6.43;2.95;;;;;;;;;;5050062;28;20021;-57
2022/06/23 06:45:25;;;;;;;8.05;3.03;;;;;;;;;;5017875;28;20363;-65
2022/06/23 06:47:51;;;;;;;9.77;3.28;;;;;;;;;;5032725;28;20099;-64
2022/06/23 06:50:37;;;;;;;7.40;2.67;;;;;;;;;;5013652;28;20061;-64
2022/06/23 06:53:07;;;;;;;5.90;2.60;;;;;;;;;;5029620;28;20029;-64
2022/06/23 06:55:41;;;;;;;7.38;2.90;;;;;;;;;;5029329;28;20091;-63
2022/06/23 06:58:13;;;;;;;7.55;2.90;;;;;;;;;;5032386;28;20191;-64
2022/06/23 07:00:45;;;;;;;6.50;2.70;;;;;;;;;;5028430;28;20036;-63
2022/06/23 07:03:12;;;;;;;4.97;2.42;;;;;;;;;;5033421;28;20433;-66
2022/06/23 07:05:53;;;;;;;6.60;2.17;;;;;;;;;;5032461;28;20034;-64
2022/06/23 07:08:25;;;;;;;8.15;2.42;;;;;;;;;;5031337;28;20029;-65
2022/06/23 07:10:54;;;;;;;7.43;2.30;;;;;;;;;;5031895;28;20104;-65
2022/06/23 07:13:35;;;;;;;9.10;2.53;;;;;;;;;;5018271;28;20037;-64
2022/06/23 07:16:04;;;;;;;7.10;2.67;;;;;;;;;;5025200;28;20109;-64
2022/06/23 07:18:30;;;;;;;9.20;3.15;;;;;;;;;;5032506;28;20176;-64
2022/06/23 07:20:56;;;;;;;12.15;3.05;;;;;;;;;;5031604;28;20505;-64
2022/06/23 07:23:29;;;;;;;5.82;2.40;;;;;;;;;;5039244;28;20021;-63
2022/06/23 07:25:57;;;;;;;9.80;3.05;;;;;;;;;;5025097;28;20104;-63
2022/06/23 07:28:34;;;;;;;12.13;2.88;;;;;;;;;;5031828;28;20041;-64
2022/06/23 07:31:27;;;;;;;11.32;3.22;;;;;;;;;;5023744;28;20077;-64
2022/06/23 07:33:58;;;;;;;6.97;2.60;;;;;;;;;;5017301;28;20053;-64
2022/06/23 07:36:32;;;;;;;8.73;2.28;;;;;;;;;;5030334;28;20061;-63
2022/06/23 07:38:58;;;;;;;7.38;2.28;;;;;;;;;;5033062;28;20112;-64
2022/06/23 07:41:36;;;;;;;10.90;2.72;;;;;;;;;;5033054;28;20129;-65
2022/06/23 07:44:05;;;;;;;8.23;2.55;;;;;;;;;;5031843;28;20029;-67
2022/06/23 07:46:32;;;;;;;4.82;1.98;;;;;;;;;;5026776;28;20036;-68
2022/06/23 07:48:58;;;;;;;6.93;2.38;;;;;;;;;;5023753;28;20038;-67
2022/06/23 07:51:24;;;;;;;8.13;2.58;;;;;;;;;;5025021;28;20041;-67
2022/06/23 07:53:52;;;;;;;7.50;2.50;;;;;;;;;;5034639;28;20029;-68
2022/06/23 07:56:20;;;;;;;8.25;3.28;;;;;;;;;;5030087;28;20025;-68
2022/06/23 07:58:47;;;;;;;5.63;2.78;;;;;;;;;;5029640;28;20072;-68
2022/06/23 08:01:17;;;;;;;4.65;1.92;;;;;;;;;;5030973;28;20056;-68
2022/06/23 08:04:04;;;;;;;8.85;2.70;;;;;;;;;;5028290;28;20482;-68
2022/06/23 08:06:31;;;;;;;6.80;2.10;;;;;;;;;;5025561;28;20030;-67
2022/06/23 08:08:59;;;;;;;5.82;2.00;;;;;;;;;;5027142;28;20025;-67
2022/06/23 08:14:13;;;;;;;7.65;2.05;;;;;;;;;;5030958;28;20033;-67
2022/06/23 08:16:50;;;;;;;4.47;2.13;;;;;;;;;;5027280;28;20026;-65
2022/06/23 08:19:19;;;;;;;7.22;2.45;;;;;;;;;;5026069;28;20100;-68
2022/06/23 08:21:48;;;;;;;5.18;1.90;;;;;;;;;;5024716;28;20034;-68
2022/06/23 08:24:16;;;;;;;7.40;2.40;;;;;;;;;;5027980;28;20351;-69
2022/06/23 08:26:45;;;;;;;5.07;2.40;;;;;;;;;;5028243;28;20021;-67
2022/06/23 08:29:14;;;;;;;6.97;2.65;;;;;;;;;;5027022;28;20028;-65
2022/06/23 08:31:40;;;;;;;4.50;1.77;;;;;;;;;;5017720;28;20032;-63
2022/06/23 08:34:07;;;;;;;5.72;2.20;;;;;;;;;;5026389;28;20047;-66
2022/06/23 08:36:53;;;;;;;8.30;2.38;;;;;;;;;;5022642;28;20046;-68
2022/06/23 08:39:34;;;;;;;7.38;2.47;;;;;;;;;;5016811;28;20102;-67
2022/06/23 08:42:09;;;;;;;9.60;2.65;;;;;;;;;;5023500;28;20041;-69
2022/06/23 08:44:49;;;;;;;5.72;2.53;;;;;;;;;;5030871;28;20083;-61
2022/06/23 08:47:21;;;;;;;6.57;2.10;;;;;;;;;;5029339;28;20469;-69
2022/06/23 08:49:50;;;;;;;4.03;1.67;;;;;;;;;;5030519;28;20116;-68
2022/06/23 08:52:26;;;;;;;2.85;1.73;;;;;;;;;;5026012;28;20474;-68
2022/06/23 08:54:59;;;;;;;7.38;2.42;;;;;;;;;;5025637;28;20065;-68
2022/06/23 08:57:25;;;;;;;6.15;2.65;;;;;;;;;;5021860;28;20030;-63
2022/06/23 08:59:54;;;;;;;5.60;2.30;;;;;;;;;;5026415;28;20079;-69
2022/06/23 09:02:22;;;;;;;5.97;2.35;;;;;;;;;;5028329;28;20029;-68
2022/06/23 09:04:54;;;;;;;6.72;2.00;;;;;;;;;;5025651;28;20030;-68
2022/06/23 09:07:43;;;;;;;4.22;2.10;;;;;;;;;;5035843;28;20031;-69
2022/06/23 09:10:12;;;;;;;6.60;2.38;;;;;;;;;;5026446;28;20533;-67
2022/06/23 09:12:56;;;;;;;6.43;2.17;;;;;;;;;;5032629;28;20025;-59
2022/06/23 09:15:39;;;;;;;9.48;2.50;;;;;;;;;;5031352;28;20021;-68
2022/06/23 09:18:08;;;;;;;7.88;3.08;;;;;;;;;;5035270;28;20024;-68
2022/06/23 09:20:34;;;;;;;9.05;2.80;;;;;;;;;;5028190;28;20029;-68
2022/06/23 09:23:22;;;;;;;6.35;1.98;;;;;;;;;;5028301;28;20493;-68
2022/06/23 09:26:02;;;;;;;7.03;2.00;;;;;;;;;;5034347;28;20386;-68
2022/06/23 09:28:43;;;;;;;6.32;2.22;;;;;;;;;;5025104;28;20038;-68
2022/06/23 09:31:20;;;;;;;5.03;2.03;;;;;;;;;;5026176;28;20056;-68
2022/06/23 09:33:56;;;;;;;4.72;2.08;;;;;;;;;;5026420;28;20038;-67
2022/06/23 09:36:43;;;;;;;7.57;2.10;;;;;;;;;;5026356;28;20123;-68
2022/06/23 09:39:09;;;;;;;7.47;2.30;;;;;;;;;;5033843;28;20078;-69
2022/06/23 09:41:44;;;;;;;9.95;2.35;;;;;;;;;;5039851;28;20099;-68
2022/06/23 09:44:19;;;;;;;6.45;2.25;;;;;;;;;;5036849;28;20029;-62
2022/06/23 09:46:52;;;;;;;4.50;2.13;;;;;;;;;;5030360;28;20037;-68
2022/06/23 09:49:30;;;;;;;4.72;2.00;;;;;;;;;;5030904;28;20033;-69
2022/06/23 09:52:04;;;;;;;5.82;2.10;;;;;;;;;;5027860;28;20074;-67
2022/06/23 09:54:34;;;;;;;6.47;2.00;;;;;;;;;;5025084;28;20025;-68
2022/06/23 09:57:00;;;;;;;7.00;1.88;;;;;;;;;;5023806;28;20079;-67
2022/06/23 09:59:45;;;;;;;5.63;2.17;;;;;;;;;;5030998;28;20029;-67
2022/06/23 10:02:17;;;;;;;7.53;2.45;;;;;;;;;;5036199;28;20112;-65
2022/06/23 10:04:49;;;;;;;5.20;2.05;;;;;;;;;;5031851;28;20049;-67
2022/06/23 10:07:28;;;;;;;6.80;2.33;;;;;;;;;;5032337;28;20497;-68
2022/06/23 10:10:00;;;;;;;8.82;2.85;;;;;;;;;;5028331;28;20478;-68
2022/06/23 10:12:32;;;;;;;7.68;2.00;;;;;;;;;;5027854;28;20033;-68
2022/06/23 10:15:25;;;;;;;3.00;1.70;;;;;;;;;;5021424;28;20029;-69
2022/06/23 10:18:10;;;;;;;7.95;2.00;;;;;;;;;;5025852;28;20072;-68
2022/06/23 10:20:59;;;;;;;7.78;2.53;;;;;;;;;;5034110;28;20025;-68
2022/06/23 10:23:34;;;;;;;3.03;1.45;;;;;;;;;;4999673;28;20040;-68
2022/06/23 10:26:19;;;;;;;8.23;2.13;;;;;;;;;;5027880;28;20034;-67
2022/06/23 10:28:45;;;;;;;5.85;2.22;;;;;;;;;;5024238;28;20052;-68
2022/06/23 10:31:24;;;;;;;10.52;2.38;;;;;;;;;;5031927;28;20049;-67
2022/06/23 10:33:50;;;;;;;3.70;1.73;;;;;;;;;;5027572;28;20048;-66
2022/06/23 10:36:25;;;;;;;3.55;1.65;;;;;;;;;;5027407;28;20352;-68
2022/06/23 10:39:09;;;;;;;5.40;1.70;;;;;;;;;;5029373;28;20076;-68
2022/06/23 10:41:54;;;;;;;7.93;2.20;;;;;;;;;;5031546;28;20041;-63
2022/06/23 10:44:44;;;;;;;4.25;1.83;;;;;;;;;;5026921;28;20040;-67
2022/06/23 10:47:16;;;;;;;5.72;1.58;;;;;;;;;;5023344;28;20482;-65
2022/06/23 10:49:48;;;;;;;9.07;2.60;;;;;;;;;;5031590;28;20046;-59
2022/06/23 10:52:14;;;;;;;5.20;2.05;;;;;;;;;;5030908;28;20025;-69
2022/06/23 10:54:52;;;;;;;4.50;1.83;;;;;;;;;;5032389;28;20711;-57
2022/06/23 10:57:32;;;;;;;7.00;2.28;;;;;;;;;;5031221;28;20029;-67
2022/06/23 11:00:07;;;;;;;5.65;1.65;;;;;;;;;;5027456;28;20035;-67
2022/06/23 11:02:41;;;;;;;11.15;1.88;;;;;;;;;;5029506;28;20022;-69
2022/06/23 11:05:07;;;;;;;2.85;1.60;;;;;;;;;;5025619;28;20175;-69
2022/06/23 11:07:37;;;;;;;4.93;1.50;;;;;;;;;;5028089;28;20426;-68
2022/06/23 11:10:21;;;;;;;8.23;2.13;;;;;;;;;;5025027;28;20034;-60
2022/06/23 11:13:02;;;;;;;3.63;2.03;;;;;;;;;;5028657;28;20430;-64
2022/06/23 11:15:32;;;;;;;7.47;2.05;;;;;;;;;;5030805;28;20030;-63
2022/06/23 11:17:58;;;;;;;3.60;1.52;;;;;;;;;;5032082;28;20034;-64
2022/06/23 11:20:34;;;;;;;4.88;2.15;;;;;;;;;;5029201;28;20422;-63
2022/06/23 11:23:06;;;;;;;3.20;1.67;;;;;;;;;;5025576;28;20201;-63
2022/06/23 11:25:39;;;;;;;4.65;2.25;;;;;;;;;;5032707;28;20053;-64
2022/06/23 11:28:08;;;;;;;5.38;2.10;;;;;;;;;;5030088;28;20101;-63
2022/06/23 11:30:34;;;;;;;4.80;1.52;;;;;;;;;;5028966;28;20038;-64
2022/06/23 11:33:06;;;;;;;3.78;1.90;;;;;;;;;;5029813;28;20036;-64
2022/06/23 11:35:41;;;;;;;5.18;2.95;;;;;;;;;;5032691;28;20087;-64
2022/06/23 11:38:27;;;;;;;3.38;1.50;;;;;;;;;;5027746;28;20494;-64
2022/06/23 11:40:56;;;;;;;3.80;1.30;;;;;;;;;;5017663;28;20534;-64
2022/06/23 11:43:26;;;;;;;5.05;1.70;;;;;;;;;;5026383;28;20148;-64
2022/06/23 11:46:13;;;;;;;5.03;1.63;;;;;;;;;;5025163;28;20086;-64
2022/06/23 11:48:54;;;;;;;2.63;1.60;;;;;;;;;;5026952;28;20088;-55
2022/06/23 11:51:20;;;;;;;3.55;1.50;;;;;;;;;;5032101;28;20102;-64
2022/06/23 11:53:46;;;;;;;4.47;1.92;;;;;;;;;;5026387;28;20378;-64
2022/06/23 11:56:41;;;;;;;3.13;1.55;;;;;;;;;;5037234;28;20026;-64
2022/06/23 11:59:24;;;;;;;3.08;1.75;;;;;;;;;;5000792;28;20053;-64
2022/06/23 12:01:50;;;;;;;3.88;1.30;;;;;;;;;;5036836;28;20429;-63
2022/06/23 12:04:25;;;;;;;3.45;1.40;;;;;;;;;;5031103;28;20224;-65
2022/06/23 12:06:54;;;;;;;4.40;1.70;;;;;;;;;;5027961;28;20057;-64
2022/06/23 12:09:29;;;;;;;3.92;1.70;;;;;;;;;;5030368;28;20505;-65
2022/06/23 12:11:57;;;;;;;4.85;1.60;;;;;;;;;;5029659;28;20026;-63
2022/06/23 12:14:25;;;;;;;3.83;1.95;;;;;;;;;;5033503;28;20158;-60
2022/06/23 12:17:00;;;;;;;3.88;1.33;;;;;;;;;;5022816;28;20021;-64
2022/06/23 12:19:32;;;;;;;2.92;1.40;;;;;;;;;;5028016;28;20104;-64
2022/06/23 12:22:09;;;;;;;5.07;1.65;;;;;;;;;;5027121;28;20033;-64
2022/06/23 12:24:42;;;;;;;3.95;1.75;;;;;;;;;;5023850;28;20033;-64
2022/06/23 12:27:18;;;;;;;6.13;1.77;;;;;;;;;;5017909;28;20025;-64
2022/06/23 12:29:44;;;;;;;4.38;1.90;;;;;;;;;;5024218;28;20107;-58
2022/06/23 12:32:14;;;;;;;2.78;1.77;;;;;;;;;;5023321;28;20025;-64
2022/06/23 12:34:40;;;;;;;4.13;1.70;;;;;;;;;;5027339;28;20458;-57
2022/06/23 12:37:26;;;;;;;2.92;1.33;;;;;;;;;;5030543;28;20053;-63
2022/06/23 12:40:05;;;;;;;7.85;1.95;;;;;;;;;;5019830;28;20117;-64
2022/06/23 12:42:40;;;;;;;6.75;2.03;;;;;;;;;;5030572;28;20041;-64
2022/06/23 12:45:09;;;;;;;4.13;2.50;;;;;;;;;;5028596;28;20093;-64
2022/06/23 12:47:44;;;;;;;4.10;1.45;;;;;;;;;;5022426;28;20037;-64
2022/06/23 12:50:27;;;;;;;6.30;2.00;;;;;;;;;;5028985;28;20033;-64
2022/06/23 12:53:18;;;;;;;7.00;2.15;;;;;;;;;;5020271;28;20025;-63
2022/06/23 12:55:59;;;;;;;5.82;2.30;;;;;;;;;;5029313;28;20470;-57
2022/06/23 12:58:25;;;;;;;4.60;2.00;;;;;;;;;;5026748;28;20508;-63
2022/06/23 13:00:51;;;;;;;6.28;2.50;;;;;;;;;;5033617;28;20478;-63
2022/06/23 13:03:20;;;;;;;5.35;2.00;;;;;;;;;;5027732;28;20471;-64
2022/06/23 13:05:48;;;;;;;6.20;2.10;;;;;;;;;;5029689;28;20041;-61
2022/06/23 13:08:26;;;;;;;4.80;2.10;;;;;;;;;;5032491;28;20469;-64
2022/06/23 13:10:59;;;;;;;5.10;1.73;;;;;;;;;;5031952;28;20078;-63
2022/06/23 13:13:48;;;;;;;9.93;2.58;;;;;;;;;;5025608;28;20386;-63
2022/06/23 13:16:34;;;;;;;9.10;2.38;;;;;;;;;;5026908;28;20025;-64
2022/06/23 13:19:11;;;;;;;5.65;2.25;;;;;;;;;;5026297;28;20549;-64
2022/06/23 13:21:39;;;;;;;7.90;1.95;;;;;;;;;;5028466;28;20071;-64
2022/06/23 13:24:07;;;;;;;5.07;2.42;;;;;;;;;;5027300;28;20140;-64
2022/06/23 13:26:36;;;;;;;5.30;2.08;;;;;;;;;;5024983;28;20026;-59
2022/06/23 13:29:05;;;;;;;5.68;2.10;;;;;;;;;;5025908;28;20025;-63
2022/06/23 13:31:53;;;;;;;8.27;2.10;;;;;;;;;;5026774;28;20022;-64
2022/06/23 13:34:27;;;;;;;5.68;2.00;;;;;;;;;;5024073;28;20082;-64
2022/06/23 13:37:01;;;;;;;4.45;1.50;;;;;;;;;;5025809;28;20036;-64
2022/06/23 13:39:47;;;;;;;9.07;2.20;;;;;;;;;;5028848;28;20109;-64
2022/06/23 13:42:13;;;;;;;7.13;2.92;;;;;;;;;;5029491;28;20101;-64
2022/06/23 13:44:54;;;;;;;7.68;2.05;;;;;;;;;;5028912;28;20076;-64
2022/06/23 13:47:22;;;;;;;7.05;2.90;;;;;;;;;;5034350;28;20025;-64
2022/06/23 13:49:57;;;;;;;4.90;2.10;;;;;;;;;;5030917;28;20088;-63
2022/06/23 13:52:30;;;;;;;3.13;1.92;;;;;;;;;;5026666;28;20052;-64
2022/06/23 13:55:00;;;;;;;5.03;1.75;;;;;;;;;;5032740;28;20026;-63
2022/06/23 13:57:39;;;;;;;5.13;1.80;;;;;;;;;;5029234;28;20021;-63
2022/06/23 14:00:10;;;;;;;6.13;1.90;;;;;;;;;;5025865;28;20532;-63
2022/06/23 14:02:51;;;;;;;5.63;1.65;;;;;;;;;;5029017;28;20053;-63
2022/06/23 14:05:36;;;;;;;8.32;2.28;;;;;;;;;;5033565;28;20033;-63
2022/06/23 14:08:05;;;;;;;9.18;2.35;;;;;;;;;;5032519;28;20105;-63
2022/06/23 14:10:49;;;;;;;7.47;1.98;;;;;;;;;;5030352;28;20120;-62
2022/06/23 14:13:21;;;;;;;3.85;1.60;;;;;;;;;;5035412;28;20045;-63
2022/06/23 14:16:02;;;;;;;4.00;1.55;;;;;;;;;;5032997;28;20040;-62
2022/06/23 14:18:49;;;;;;;12.90;2.13;;;;;;;;;;5029533;28;20026;-62
2022/06/23 14:21:34;;;;;;;7.03;1.70;;;;;;;;;;5022185;28;20025;-63
2022/06/23 14:24:11;;;;;;;3.13;1.60;;;;;;;;;;5027587;28;20030;-62
2022/06/23 14:26:44;;;;;;;8.55;2.13;;;;;;;;;;5026131;28;20030;-63
2022/06/23 14:29:26;;;;;;;4.55;2.00;;;;;;;;;;5031153;28;20038;-62
2022/06/23 14:31:51;;;;;;;;;;;;;;;;;;5033518;28;20091;-63
2022/06/23 14:34:21;;;;;;;4.75;1.70;;;;;;;;;;5033569;28;20405;-63
2022/06/23 14:37:02;;;;;;;4.50;1.90;;;;;;;;;;5029493;28;20084;-54
2022/06/23 14:39:48;;;;;;;6.85;1.75;;;;;;;;;;5030318;28;20041;-61
2022/06/23 14:42:14;;;;;;;6.35;2.17;;;;;;;;;;5027506;28;20098;-62
2022/06/23 14:44:46;;;;;;;8.00;1.75;;;;;;;;;;5029986;28;20025;-62
2022/06/23 14:47:25;;;;;;;2.50;1.40;;;;;;;;;;5031159;28;20021;-62
2022/06/23 14:50:00;;;;;;;5.28;1.75;;;;;;;;;;5030898;28;20496;-62
2022/06/23 14:52:33;;;;;;;5.13;1.70;;;;;;;;;;5031906;28;20029;-62
2022/06/23 14:55:07;;;;;;;2.53;1.52;;;;;;;;;;5030789;28;20032;-62
2022/06/23 14:57:43;;;;;;;4.90;2.00;;;;;;;;;;5029140;28;20100;-63
2022/06/23 15:00:21;;;;;;;6.55;2.40;;;;;;;;;;5029000;28;20037;-66
2022/06/23 15:02:50;;;;;;;7.15;1.70;;;;;;;;;;5027547;28;20478;-55
2022/06/23 15:05:22;;;;;;;3.70;1.65;;;;;;;;;;5029121;28;20373;-63
2022/06/23 15:07:58;;;;;;;5.85;1.73;;;;;;;;;;5027865;28;20055;-59
2022/06/23 15:10:42;;;;;;;5.30;2.08;;;;;;;;;;5024896;28;20553;-65
2022/06/23 15:13:16;;;;;;;4.25;2.17;;;;;;;;;;5030942;28;20044;-67
2022/06/23 15:15:52;;;;;;;5.30;2.30;;;;;;;;;;5026205;28;20025;-67
2022/06/23 15:18:21;;;;;;;4.88;1.77;;;;;;;;;;5024334;28;20390;-66
2022/06/23 15:20:54;;;;;;;4.43;1.77;;;;;;;;;;5021546;28;20502;-55
2022/06/23 15:23:26;;;;;;;3.75;1.52;;;;;;;;;;5031429;28;20104;-67
2022/06/23 15:26:16;;;;;;;5.55;2.97;;;;;;;;;;5030503;28;20021;-68